Time;durP1;ratioP1;P1;durP2;ratioP2;P2;SDS_P1;SDS_P2;PMS_P1;PMS_P2;Temp;Humidity;BMP_temperature;BMP_pressure;BME280_temperature;BME280_humidity;BME280_pressure;Samples;Min_cycle;Max_cycle;Signal;HPM_P1;HPM_P2
2022/03/24 00:00:54;;;;;;;5.50;4.70;;;;;;;8.43;37.61;100336.16;5093524;28;20197;-66
2022/03/24 00:03:20;;;;;;;5.73;5.23;;;;;;;8.39;38.06;100334.81;5093456;28;20240;-67
2022/03/24 00:05:47;;;;;;;7.27;5.03;;;;;;;8.43;37.52;100330.84;5093157;28;20777;-67
2022/03/24 00:08:14;;;;;;;5.60;4.70;;;;;;;8.46;37.67;100328.69;5093288;28;20191;-67
2022/03/24 00:10:40;;;;;;;6.03;5.00;;;;;;;8.48;38.65;100318.78;5093910;28;20202;-67
2022/03/24 00:13:07;;;;;;;21.97;5.17;;;;;;;8.47;38.38;100311.84;5092968;28;20253;-67
2022/03/24 00:15:35;;;;;;;5.97;5.40;;;;;;;8.49;38.32;100314.34;5093188;28;20296;-67
2022/03/24 00:18:02;;;;;;;13.83;5.33;;;;;;;8.44;38.97;100314.81;5093993;28;20245;-67
2022/03/24 00:20:29;;;;;;;10.43;5.77;;;;;;;8.35;39.35;100312.31;5093456;28;20272;-66
2022/03/24 00:22:55;;;;;;;11.53;5.23;;;;;;;8.35;39.25;100320.25;5092764;28;20659;-66
2022/03/24 00:25:24;;;;;;;8.43;5.90;;;;;;;8.30;39.11;100309.31;5092054;28;20747;-66
2022/03/24 00:27:51;;;;;;;7.93;5.17;;;;;;;8.20;39.62;100312.06;5092668;28;20196;-66
2022/03/24 00:30:17;;;;;;;7.43;5.47;;;;;;;8.09;39.42;100288.53;5092989;28;20255;-66
2022/03/24 00:32:45;;;;;;;5.63;5.13;;;;;;;8.07;39.77;100293.19;5092936;28;20264;-67
2022/03/24 00:35:12;;;;;;;6.07;5.27;;;;;;;8.09;40.04;100296.47;5092488;28;20759;-66
2022/03/24 00:37:39;;;;;;;7.37;5.00;;;;;;;8.12;40.15;100297.97;5093406;28;20187;-67
2022/03/24 00:40:07;;;;;;;5.67;5.17;;;;;;;8.10;40.04;100286.72;5092784;28;20199;-66
2022/03/24 00:42:36;;;;;;;9.30;5.70;;;;;;;8.08;40.47;100281.59;5093029;28;20190;-67
2022/03/24 00:45:05;;;;;;;7.60;5.23;;;;;;;8.03;40.46;100281.25;5092460;28;20202;-67
2022/03/24 00:47:32;;;;;;;9.27;4.80;;;;;;;8.00;40.92;100280.75;5093251;28;20252;-66
2022/03/24 00:50:01;;;;;;;10.27;4.93;;;;;;;7.99;41.42;100276.44;5092374;28;20283;-67
2022/03/24 00:52:27;;;;;;;8.60;4.87;;;;;;;7.99;41.25;100274.63;5092614;28;20317;-66
2022/03/24 00:54:54;;;;;;;8.33;4.63;;;;;;;7.98;40.66;100272.97;5092797;28;20191;-67
2022/03/24 00:57:21;;;;;;;5.40;4.90;;;;;;;7.96;41.42;100274.13;5092281;28;20225;-67
2022/03/24 00:59:47;;;;;;;7.97;4.73;;;;;;;7.90;41.76;100270.31;5092182;28;20248;-67
2022/03/24 01:02:14;;;;;;;7.60;4.80;;;;;;;7.83;41.99;100263.16;5092208;28;20195;-66
2022/03/24 01:04:41;;;;;;;7.97;4.87;;;;;;;7.77;42.17;100258.50;5092344;28;20195;-67
2022/03/24 01:07:09;;;;;;;7.97;4.87;;;;;;;7.69;42.65;100253.19;5092466;28;20210;-67
2022/03/24 01:09:37;;;;;;;6.37;5.00;;;;;;;7.42;42.63;100258.66;5092451;28;20187;-67
2022/03/24 01:12:05;;;;;;;8.30;5.30;;;;;;;7.34;42.97;100266.53;5092420;28;20264;-67
2022/03/24 01:14:35;;;;;;;15.53;5.93;;;;;;;7.27;43.66;100254.97;5093215;28;20214;-67
2022/03/24 01:17:04;;;;;;;8.70;5.10;;;;;;;7.12;43.78;100254.72;5092851;28;20225;-67
2022/03/24 01:19:32;;;;;;;7.17;5.50;;;;;;;6.99;44.02;100248.19;5092019;28;20286;-67
2022/03/24 01:22:00;;;;;;;7.50;5.17;;;;;;;6.76;44.86;100239.94;5091988;28;20724;-67
2022/03/24 01:24:28;;;;;;;9.17;5.43;;;;;;;6.55;45.59;100236.78;5091978;28;20187;-67
2022/03/24 01:26:55;;;;;;;11.83;5.53;;;;;;;6.44;45.81;100239.66;5091945;28;20255;-66
2022/03/24 01:29:23;;;;;;;6.23;4.90;;;;;;;6.36;46.32;100241.41;5092218;28;20195;-66
2022/03/24 01:31:51;;;;;;;8.33;5.50;;;;;;;6.49;46.25;100241.84;5092198;28;20630;-67
2022/03/24 01:34:18;;;;;;;11.37;5.60;;;;;;;6.57;46.11;100231.38;5091864;28;20750;-67
2022/03/24 01:36:45;;;;;;;10.57;5.83;;;;;;;6.70;45.46;100234.44;5094167;28;20220;-67
2022/03/24 01:39:11;;;;;;;11.20;5.43;;;;;;;6.79;46.29;100233.50;5096278;28;20206;-67
2022/03/24 01:41:40;;;;;;;8.20;5.67;;;;;;;6.80;46.09;100228.06;5095929;28;20206;-67
2022/03/24 01:44:12;;;;;;;8.60;6.00;;;;;;;6.81;45.43;100223.63;5095818;28;20191;-67
2022/03/24 01:46:39;;;;;;;7.30;5.90;;;;;;;6.63;46.09;100222.81;5097004;28;20248;-67
2022/03/24 01:49:06;;;;;;;8.93;5.17;;;;;;;6.50;46.54;100217.13;5095782;28;20190;-67
2022/03/24 01:51:33;;;;;;;11.30;5.60;;;;;;;6.43;46.52;100216.06;5095756;28;20802;-67
2022/03/24 01:54:00;;;;;;;7.27;5.10;;;;;;;6.45;45.63;100222.03;5095983;28;20204;-67
2022/03/24 01:56:27;;;;;;;5.50;5.00;;;;;;;6.55;46.44;100218.31;5095546;28;20696;-66
2022/03/24 01:58:57;;;;;;;8.50;5.37;;;;;;;6.66;46.42;100215.41;5095548;28;20195;-67
2022/03/24 02:01:34;;;;;;;8.73;4.93;;;;;;;6.73;46.29;100228.84;5095542;28;20657;-67
2022/03/24 02:04:03;;;;;;;10.47;5.60;;;;;;;6.78;46.44;100221.28;5096698;28;20277;-66
2022/03/24 02:06:30;;;;;;;13.37;6.30;;;;;;;6.64;46.24;100221.84;5095809;28;20258;-67
2022/03/24 02:08:57;;;;;;;7.00;5.40;;;;;;;6.50;46.37;100222.38;5095680;28;20221;-67
2022/03/24 02:11:24;;;;;;;7.13;6.37;;;;;;;6.57;46.66;100223.44;5095930;28;20195;-67
2022/03/24 02:13:52;;;;;;;12.13;6.67;;;;;;;6.62;46.52;100221.16;5095279;28;20191;-67
2022/03/24 02:16:20;;;;;;;12.73;6.57;;;;;;;6.69;46.68;100220.41;5095455;28;20246;-67
2022/03/24 02:18:46;;;;;;;19.17;7.10;;;;;;;6.73;47.11;100226.22;5095179;28;20196;-67
2022/03/24 02:21:16;;;;;;;12.03;6.03;;;;;;;6.72;46.68;100219.25;5095745;28;20198;-66
2022/03/24 02:23:45;;;;;;;13.23;7.47;;;;;;;6.72;46.79;100216.63;5095389;28;20191;-67
2022/03/24 02:26:12;;;;;;;9.57;6.23;;;;;;;6.73;46.35;100218.28;5095368;28;20197;-66
2022/03/24 02:28:40;;;;;;;9.73;6.83;;;;;;;6.64;46.27;100214.75;5095019;28;20773;-67
2022/03/24 02:31:09;;;;;;;15.77;8.10;;;;;;;6.69;47.01;100214.31;5095298;28;20230;-66
2022/03/24 02:33:36;;;;;;;9.53;7.43;;;;;;;6.69;46.50;100216.94;5094901;28;20191;-67
2022/03/24 02:36:03;;;;;;;8.80;7.67;;;;;;;6.70;46.66;100219.41;5094794;28;20227;-67
2022/03/24 02:38:31;;;;;;;20.27;8.97;;;;;;;6.63;46.81;100218.38;5095109;28;20191;-67
2022/03/24 02:40:59;;;;;;;12.73;7.93;;;;;;;6.49;47.03;100212.81;5095327;28;20194;-67
2022/03/24 02:43:26;;;;;;;13.73;8.37;;;;;;;6.31;47.34;100217.25;5094978;28;20663;-67
2022/03/24 02:45:53;;;;;;;11.93;6.97;;;;;;;6.20;47.95;100205.13;5094979;28;20258;-67
2022/03/24 02:48:20;;;;;;;13.53;7.20;;;;;;;6.09;48.39;100208.00;5093862;28;20202;-67
2022/03/24 02:50:47;;;;;;;13.63;7.90;;;;;;;6.12;48.16;100212.16;5094583;28;20187;-67
2022/03/24 02:53:14;;;;;;;14.73;8.17;;;;;;;6.07;48.66;100209.13;5095150;28;20191;-67
2022/03/24 02:55:41;;;;;;;12.93;8.73;;;;;;;5.98;48.56;100208.22;5094952;28;20189;-67
2022/03/24 02:58:09;;;;;;;15.37;8.77;;;;;;;5.66;49.92;100205.19;5094815;28;20187;-66
2022/03/24 03:00:38;;;;;;;8.37;7.57;;;;;;;5.59;50.47;100204.97;5094341;28;20249;-67
2022/03/24 03:03:06;;;;;;;11.80;7.67;;;;;;;5.64;50.15;100207.16;5094959;28;20192;-67
2022/03/24 03:05:32;;;;;;;12.67;7.80;;;;;;;5.70;49.81;100207.41;5094471;28;20706;-67
2022/03/24 03:07:59;;;;;;;13.77;7.50;;;;;;;5.59;50.28;100199.69;5094617;28;20199;-67
2022/03/24 03:10:26;;;;;;;13.90;8.47;;;;;;;5.63;50.51;100197.56;5094241;28;20196;-66
2022/03/24 03:12:52;;;;;;;14.13;7.80;;;;;;;5.72;49.77;100204.63;5094495;28;20252;-66
2022/03/24 03:15:20;;;;;;;10.40;6.77;;;;;;;5.70;49.70;100196.03;5094960;28;20191;-66
2022/03/24 03:17:47;;;;;;;11.10;7.83;;;;;;;5.68;49.79;100196.16;5094223;28;20273;-66
2022/03/24 03:20:14;;;;;;;12.87;7.60;;;;;;;5.67;50.07;100189.25;5094003;28;20191;-66
2022/03/24 03:22:41;;;;;;;11.07;7.77;;;;;;;5.65;50.15;100193.81;5094849;28;20257;-66
2022/03/24 03:25:09;;;;;;;8.87;7.43;;;;;;;5.60;50.12;100188.16;5093942;28;20580;-66
2022/03/24 03:27:36;;;;;;;12.47;7.67;;;;;;;5.54;49.93;100180.88;5095008;28;20195;-66
2022/03/24 03:30:05;;;;;;;10.77;7.23;;;;;;;5.56;50.92;100189.44;5093858;28;20745;-67
2022/03/24 03:32:33;;;;;;;17.33;7.20;;;;;;;5.46;51.12;100183.41;5093748;28;20725;-67
2022/03/24 03:35:00;;;;;;;13.37;7.97;;;;;;;5.36;51.67;100179.97;5093991;28;20196;-66
2022/03/24 03:37:26;;;;;;;14.90;8.63;;;;;;;5.33;51.25;100182.09;5093617;28;20219;-65
2022/03/24 03:39:53;;;;;;;15.07;8.53;;;;;;;5.26;52.12;100187.09;5094119;28;20204;-65
2022/03/24 03:42:21;;;;;;;17.63;8.57;;;;;;;5.12;52.01;100184.97;5094173;28;20253;-65
2022/03/24 03:44:47;;;;;;;14.97;9.63;;;;;;;4.85;53.51;100187.53;5093741;28;20655;-66
2022/03/24 03:47:14;;;;;;;20.20;9.40;;;;;;;4.96;53.31;100184.72;5093774;28;20219;-66
2022/03/24 03:49:42;;;;;;;26.57;10.63;;;;;;;5.01;53.10;100185.13;5094035;28;20188;-65
2022/03/24 03:52:09;;;;;;;24.20;10.30;;;;;;;5.00;52.73;100191.38;5094182;28;20758;-66
2022/03/24 03:54:36;;;;;;;25.33;10.13;;;;;;;5.07;52.97;100181.09;5093308;28;20228;-68
2022/03/24 03:57:03;;;;;;;22.90;9.70;;;;;;;5.08;52.89;100180.94;5093217;28;20226;-66
2022/03/24 03:59:31;;;;;;;21.30;10.97;;;;;;;5.01;53.08;100182.50;5092299;28;20617;-66
2022/03/24 04:01:59;;;;;;;20.17;9.93;;;;;;;5.01;53.20;100171.13;5093496;28;20261;-67
2022/03/24 04:04:26;;;;;;;15.70;10.10;;;;;;;5.07;52.77;100175.81;5093496;28;20195;-66
2022/03/24 04:06:54;;;;;;;19.73;9.60;;;;;;;5.10;53.06;100163.19;5094605;28;20231;-66
2022/03/24 04:09:21;;;;;;;22.60;9.40;;;;;;;5.16;52.35;100165.22;5093509;28;20241;-66
2022/03/24 04:11:47;;;;;;;14.93;8.37;;;;;;;5.20;53.15;100166.59;5093253;28;20187;-66
2022/03/24 04:14:14;;;;;;;12.87;7.90;;;;;;;5.24;52.06;100167.16;5092892;28;20734;-66
2022/03/24 04:16:41;;;;;;;21.90;9.43;;;;;;;5.16;52.88;100154.69;5093938;28;20303;-66
2022/03/24 04:19:09;;;;;;;16.90;10.07;;;;;;;5.16;52.77;100167.88;5093166;28;20276;-66
2022/03/24 04:21:35;;;;;;;11.93;8.57;;;;;;;5.17;52.91;100172.19;5093333;28;20572;-67
2022/03/24 04:24:04;;;;;;;16.20;7.87;;;;;;;5.21;52.24;100168.28;5092755;28;20260;-66
2022/03/24 04:26:31;;;;;;;12.17;7.63;;;;;;;5.23;52.29;100161.06;5093812;28;20246;-66
2022/03/24 04:28:57;;;;;;;14.33;8.10;;;;;;;5.12;52.70;100163.91;5092910;28;20191;-66
2022/03/24 04:31:24;;;;;;;10.20;7.87;;;;;;;5.02;53.25;100162.25;5092647;28;20188;-66
2022/03/24 04:33:51;;;;;;;14.73;7.67;;;;;;;5.15;53.06;100154.88;5093096;28;20246;-66
2022/03/24 04:36:18;;;;;;;15.47;9.03;;;;;;;5.26;52.98;100155.50;5092739;28;20223;-67
2022/03/24 04:38:44;;;;;;;16.87;8.97;;;;;;;5.32;52.95;100162.00;5092434;28;20650;-68
2022/03/24 04:41:13;;;;;;;27.37;14.87;;;;;;;5.38;53.22;100162.22;5092770;28;20248;-67
2022/03/24 04:43:39;;;;;;;39.43;14.03;;;;;;;5.44;53.42;100164.25;5092956;28;20195;-67
2022/03/24 04:46:06;;;;;;;19.87;12.40;;;;;;;5.61;52.60;100158.19;5092469;28;20225;-67
2022/03/24 04:48:35;;;;;;;21.73;11.30;;;;;;;6.01;51.90;100157.00;5092324;28;20662;-67
2022/03/24 04:51:04;;;;;;;18.17;11.00;;;;;;;6.27;50.47;100157.88;5092825;28;20245;-66
2022/03/24 04:53:31;;;;;;;15.83;11.17;;;;;;;6.59;49.38;100158.97;5092298;28;20278;-67
2022/03/24 04:55:58;;;;;;;36.90;18.57;;;;;;;6.94;48.72;100171.25;5092277;28;20271;-67
2022/03/24 04:58:26;;;;;;;17.73;10.80;;;;;;;7.23;46.82;100171.72;5092500;28;20222;-67
2022/03/24 05:00:53;;;;;;;16.27;11.07;;;;;;;7.46;46.89;100172.78;5092572;28;20195;-67
2022/03/24 05:03:20;;;;;;;18.63;10.70;;;;;;;7.89;46.31;100172.59;5092787;28;20202;-67
2022/03/24 05:05:47;;;;;;;18.80;10.97;;;;;;;8.09;44.39;100176.59;5092580;28;20226;-67
2022/03/24 05:08:14;;;;;;;11.27;9.43;;;;;;;8.25;43.56;100174.81;5092449;28;20191;-67
2022/03/24 05:10:40;;;;;;;24.40;10.60;;;;;;;8.68;43.65;100173.66;5091697;28;20210;-67
2022/03/24 05:13:08;;;;;;;26.30;11.10;;;;;;;9.26;42.46;100168.88;5092008;28;20688;-67
2022/03/24 05:15:36;;;;;;;30.73;10.33;;;;;;;9.90;41.69;100160.63;5092603;28;20198;-67
2022/03/24 05:18:04;;;;;;;48.23;11.43;;;;;;;10.25;40.25;100166.22;5092116;28;20640;-66
2022/03/24 05:20:32;;;;;;;26.43;9.80;;;;;;;10.70;39.47;100165.31;5091324;28;20273;-66
2022/03/24 05:22:58;;;;;;;23.17;8.20;;;;;;;10.89;37.97;100167.47;5092590;28;20199;-66
2022/03/24 05:25:26;;;;;;;21.20;7.63;;;;;;;11.04;37.18;100168.31;5092408;28;20589;-66
2022/03/24 05:27:52;;;;;;;25.97;8.97;;;;;;;10.77;37.67;100155.63;5092516;28;20281;-66
2022/03/24 05:30:19;;;;;;;19.60;8.67;;;;;;;10.87;38.33;100124.31;5092102;28;20577;-71
2022/03/24 05:32:47;;;;;;;20.90;9.63;;;;;;;11.26;37.31;100151.44;5091796;28;20800;-69
2022/03/24 05:35:14;;;;;;;30.73;11.07;;;;;;;11.85;36.69;100131.75;5091725;28;20732;-68
2022/03/24 05:37:41;;;;;;;22.73;8.60;;;;;;;12.40;35.56;100161.16;5092660;28;20657;-66
2022/03/24 05:40:09;;;;;;;20.83;9.40;;;;;;;12.72;34.73;100155.28;5092329;28;20574;-68
2022/03/24 05:42:36;;;;;;;34.80;19.80;;;;;;;12.95;34.39;100158.53;5092216;28;20624;-68
2022/03/24 05:45:03;;;;;;;23.83;12.03;;;;;;;13.55;33.85;100156.03;5092022;28;20209;-68
2022/03/24 05:47:30;;;;;;;20.00;9.77;;;;;;;14.15;32.42;100158.69;5092002;28;20207;-68
2022/03/24 05:49:58;;;;;;;22.60;8.50;;;;;;;14.28;32.14;100164.09;5091971;28;20562;-68
2022/03/24 05:52:25;;;;;;;19.27;10.33;;;;;;;13.96;32.50;100174.66;5091817;28;20195;-68
2022/03/24 05:54:51;;;;;;;26.77;10.77;;;;;;;14.45;31.89;100173.34;5092645;28;20191;-68
2022/03/24 05:57:18;;;;;;;31.80;10.60;;;;;;;14.94;31.42;100164.91;5091394;28;20219;-69
2022/03/24 05:59:45;;;;;;;29.50;12.33;;;;;;;14.82;31.25;100162.06;5091649;28;20195;-68
2022/03/24 06:02:13;;;;;;;49.67;19.97;;;;;;;14.93;30.54;100156.09;5091184;28;20206;-68
2022/03/24 06:04:42;;;;;;;25.50;14.20;;;;;;;15.05;30.30;100158.94;5091929;28;20199;-69
2022/03/24 06:07:11;;;;;;;15.73;8.63;;;;;;;15.60;29.80;100167.25;5092037;28;20211;-70
2022/03/24 06:09:38;;;;;;;12.47;7.17;;;;;;;15.37;30.00;100164.25;5091707;28;20544;-67
2022/03/24 06:12:08;;;;;;;24.70;7.00;;;;;;;15.73;29.48;100167.19;5091857;28;20256;-67
2022/03/24 06:14:35;;;;;;;14.27;6.73;;;;;;;15.88;28.99;100156.22;5091505;28;20716;-67
2022/03/24 06:17:02;;;;;;;17.03;6.97;;;;;;;16.09;28.45;100165.81;5091600;28;20226;-66
2022/03/24 06:19:29;;;;;;;23.00;6.77;;;;;;;16.49;27.74;100162.66;5091414;28;20655;-66
2022/03/24 06:21:56;;;;;;;28.07;7.17;;;;;;;16.93;26.86;100159.00;5091961;28;20195;-67
2022/03/24 06:24:25;;;;;;;13.20;6.57;;;;;;;16.36;27.16;100156.53;5094773;28;20191;-68
2022/03/24 06:26:52;;;;;;;11.90;6.93;;;;;;;16.19;27.90;100150.06;5093371;28;20204;-68
2022/03/24 06:29:19;;;;;;;24.17;6.97;;;;;;;16.14;27.94;100129.28;5094762;28;20195;-73
2022/03/24 06:31:46;;;;;;;8.03;5.87;;;;;;;15.85;28.40;100122.63;5091160;28;20207;-66
2022/03/24 06:34:13;;;;;;;6.37;5.60;;;;;;;16.34;30.14;100155.94;5083270;28;20678;-67
2022/03/24 06:36:40;;;;;;;10.50;6.03;;;;;;;16.61;31.54;100154.75;5087762;28;20275;-67
2022/03/24 06:39:08;;;;;;;7.93;6.03;;;;;;;17.23;27.38;100138.47;5074782;28;20214;-68
2022/03/24 06:41:36;;;;;;;12.23;6.03;;;;;;;17.35;28.12;100142.06;5074998;28;20199;-71
2022/03/24 06:44:06;;;;;;;12.13;6.00;;;;;;;17.34;29.17;100138.53;5077458;28;20195;-72
2022/03/24 06:46:34;;;;;;;10.70;5.67;;;;;;;17.67;26.76;100154.28;5095288;28;20187;-70
2022/03/24 06:49:01;;;;;;;18.50;5.80;;;;;;;17.32;26.36;100143.31;5091782;28;20448;-70
2022/03/24 06:51:27;;;;;;;11.20;6.03;;;;;;;16.90;27.08;100127.25;5074419;28;20278;-69
2022/03/24 06:53:54;;;;;;;14.10;5.53;;;;;;;17.22;27.96;100147.53;5074102;28;20690;-68
2022/03/24 06:56:21;;;;;;;9.20;4.67;;;;;;;17.02;26.65;100153.13;5079680;28;20202;-68
2022/03/24 06:58:49;;;;;;;10.33;5.10;;;;;;;16.75;27.00;100145.53;5092224;28;20211;-69
2022/03/24 07:01:17;;;;;;;9.27;6.00;;;;;;;17.00;27.09;100147.16;5093631;28;20301;-69
2022/03/24 07:03:44;;;;;;;12.77;5.80;;;;;;;17.06;26.94;100126.69;5094139;28;20199;-68
2022/03/24 07:06:11;;;;;;;11.97;5.63;;;;;;;17.29;27.16;100143.75;5094189;28;20783;-68
2022/03/24 07:08:38;;;;;;;16.13;6.47;;;;;;;17.58;27.16;100142.22;5094140;28;20214;-70
2022/03/24 07:11:06;;;;;;;10.10;6.20;;;;;;;17.88;26.52;100145.78;5094052;28;20671;-69
2022/03/24 07:13:33;;;;;;;8.63;5.80;;;;;;;18.16;27.17;100136.06;5107073;28;20222;-70
2022/03/24 07:16:01;;;;;;;12.93;6.73;;;;;;;18.27;28.49;100147.88;5095811;28;20214;-71
2022/03/24 07:18:28;;;;;;;12.30;6.27;;;;;;;18.41;26.03;100143.97;5094150;28;20223;-68
2022/03/24 07:20:54;;;;;;;17.30;6.60;;;;;;;18.45;26.04;100134.38;5093978;28;20195;-68
2022/03/24 07:23:21;;;;;;;12.60;6.23;;;;;;;18.41;25.90;100138.59;5094111;28;20191;-69
2022/03/24 07:25:48;;;;;;;11.83;6.00;;;;;;;18.76;25.76;100142.16;5094747;28;20248;-68
2022/03/24 07:28:15;;;;;;;28.20;7.10;;;;;;;19.08;24.87;100141.56;5093764;28;20668;-69
2022/03/24 07:30:42;;;;;;;15.07;6.53;;;;;;;19.55;24.61;100147.75;5080277;28;20196;-69
2022/03/24 07:33:11;;;;;;;9.13;6.00;;;;;;;19.60;25.32;100145.19;5092366;28;20195;-69
2022/03/24 07:35:37;;;;;;;11.50;6.10;;;;;;;19.77;25.93;100149.56;5093483;28;20189;-69
2022/03/24 07:38:04;;;;;;;12.87;6.27;;;;;;;19.86;23.85;100147.31;5094146;28;20256;-70
2022/03/24 07:40:31;;;;;;;13.87;6.40;;;;;;;19.68;23.93;100152.88;5093813;28;20194;-69
2022/03/24 07:42:58;;;;;;;15.10;5.80;;;;;;;19.93;24.42;100145.31;5093432;28;20249;-70
2022/03/24 07:45:26;;;;;;;17.90;6.00;;;;;;;19.57;23.96;100145.66;5093953;28;20273;-69
2022/03/24 07:48:25;;;;;;;268.43;31.50;;;;;;;19.94;23.65;100149.63;5093702;28;20200;-71
2022/03/24 07:50:54;;;;;;;11.93;5.77;;;;;;;20.11;23.45;100137.88;5059275;28;20202;-68
2022/03/24 07:53:33;;;;;;;18.20;7.60;;;;;;;20.17;23.41;100141.44;5093209;28;20257;-70
2022/03/24 07:56:01;;;;;;;11.60;6.27;;;;;;;19.95;23.37;100137.78;5093816;28;20244;-71
2022/03/24 07:58:28;;;;;;;21.27;7.30;;;;;;;19.94;24.59;100141.53;5092960;28;20219;-70
2022/03/24 08:00:57;;;;;;;22.43;7.10;;;;;;;20.47;23.73;100140.09;5093121;28;20624;-70
2022/03/24 08:03:25;;;;;;;18.70;6.77;;;;;;;20.45;27.22;100133.31;5091765;28;20248;-72
2022/03/24 08:05:52;;;;;;;19.53;9.30;;;;;;;20.64;23.23;100137.44;5079933;28;20286;-71
2022/03/24 08:08:20;;;;;;;11.97;5.50;;;;;;;20.85;25.03;100131.28;5093327;28;20199;-75
2022/03/24 08:10:48;;;;;;;8.43;5.23;;;;;;;20.60;23.21;100133.59;5092738;28;20197;-71
2022/03/24 08:13:18;;;;;;;15.43;6.50;;;;;;;20.73;23.32;100129.72;5103209;28;20194;-73
2022/03/24 08:15:45;;;;;;;7.80;6.23;;;;;;;20.28;23.16;100127.09;5113279;28;20318;-71
2022/03/24 08:18:12;;;;;;;13.90;6.13;;;;;;;20.33;23.18;100121.78;5113169;28;20222;-72
2022/03/24 08:20:42;;;;;;;11.90;6.57;;;;;;;20.81;24.98;100119.34;5113457;28;20490;-73
2022/03/24 08:23:10;;;;;;;15.13;6.73;;;;;;;21.64;23.21;100116.47;5113458;28;20199;-72
2022/03/24 08:25:37;;;;;;;12.87;7.47;;;;;;;21.68;22.55;100107.56;5113375;28;20194;-69
2022/03/24 08:28:05;;;;;;;10.87;5.57;;;;;;;21.86;24.30;100107.28;5113372;28;20275;-71
2022/03/24 08:30:32;;;;;;;11.40;6.47;;;;;;;22.32;21.88;100109.38;5113496;28;20229;-71
2022/03/24 08:32:59;;;;;;;9.87;5.80;;;;;;;22.12;21.74;100108.34;5113491;27;20190;-72
2022/03/24 08:35:26;;;;;;;17.07;5.43;;;;;;;22.37;21.72;100076.91;5109040;28;20187;-72
2022/03/24 08:37:55;;;;;;;30.77;7.30;;;;;;;22.58;21.80;100092.28;5093130;28;20223;-73
2022/03/24 08:40:23;;;;;;;19.60;6.70;;;;;;;22.69;22.18;100094.00;5092675;28;20198;-73
2022/03/24 08:42:50;;;;;;;12.27;6.30;;;;;;;22.86;21.63;100094.66;5093132;28;20193;-74
2022/03/24 08:45:19;;;;;;;16.03;7.20;;;;;;;22.79;20.95;100096.75;5092567;28;20213;-73
2022/03/24 08:47:46;;;;;;;10.60;6.17;;;;;;;22.93;21.40;100097.13;5092381;28;20256;-71
2022/03/24 08:50:13;;;;;;;20.93;7.23;;;;;;;23.39;21.72;100089.00;5092248;28;20195;-71
2022/03/24 08:52:41;;;;;;;13.17;6.20;;;;;;;23.06;20.76;100094.78;5092609;28;20233;-72
2022/03/24 08:55:13;;;;;;;10.13;5.57;;;;;;;22.56;21.31;100091.75;5092685;28;20196;-69
2022/03/24 08:57:41;;;;;;;13.10;6.23;;;;;;;22.57;21.17;100087.94;5093034;28;20228;-71
2022/03/24 09:00:13;;;;;;;15.77;6.37;;;;;;;22.33;21.17;100078.50;5093264;28;20190;-71
2022/03/24 09:02:41;;;;;;;10.70;6.47;;;;;;;22.41;21.42;100069.13;5091825;28;20211;-72
2022/03/24 09:05:08;;;;;;;16.17;7.27;;;;;;;22.76;21.68;100078.34;5077100;28;20335;-74
2022/03/24 09:07:36;;;;;;;8.47;6.20;;;;;;;22.86;20.90;100067.56;5092879;28;20187;-72
2022/03/24 09:10:05;;;;;;;35.93;7.70;;;;;;;22.76;20.24;100078.34;5092344;28;20199;-71
2022/03/24 09:12:34;;;;;;;7.07;6.40;;;;;;;22.89;20.45;100064.34;5095889;28;20199;-74
2022/03/24 09:15:05;;;;;;;10.90;6.70;;;;;;;23.26;20.71;100062.38;5112237;28;20198;-73
2022/03/24 09:17:32;;;;;;;14.23;6.80;;;;;;;23.65;19.23;100058.19;5112689;28;20201;-74
2022/03/24 09:19:58;;;;;;;15.40;6.50;;;;;;;23.37;19.78;100060.53;5112782;28;20199;-71
2022/03/24 09:22:25;;;;;;;10.53;6.33;;;;;;;23.59;20.30;100053.84;5113330;28;20200;-73
2022/03/24 09:24:52;;;;;;;21.97;7.63;;;;;;;24.03;17.85;100057.75;5112404;28;20191;-74
2022/03/24 09:27:19;;;;;;;9.63;7.17;;;;;;;23.90;17.92;100052.84;5112621;28;20204;-73
2022/03/24 09:29:49;;;;;;;10.57;6.50;;;;;;;24.05;18.27;100046.63;5112709;28;20212;-75
2022/03/24 09:32:16;;;;;;;16.70;7.03;;;;;;;23.78;18.01;100054.16;5112695;28;20194;-73
2022/03/24 09:34:43;;;;;;;12.53;7.20;;;;;;;23.87;20.08;100037.06;5113006;28;20204;-76
2022/03/24 09:37:10;;;;;;;15.43;7.10;;;;;;;23.77;17.71;100047.09;5093396;28;20192;-73
2022/03/24 09:39:38;;;;;;;10.93;7.33;;;;;;;23.73;19.36;100029.72;5092303;28;20255;-77
2022/03/24 09:42:04;;;;;;;10.20;7.17;;;;;;;23.92;18.24;100028.97;5092178;28;20197;-70
2022/03/24 09:44:33;;;;;;;13.87;7.83;;;;;;;23.39;18.08;100034.78;5092371;28;20254;-75
2022/03/24 09:47:01;;;;;;;21.37;8.17;;;;;;;23.09;18.23;100015.66;5092032;28;20679;-75
2022/03/24 09:49:28;;;;;;;18.27;7.83;;;;;;;23.38;19.97;100021.47;5091855;28;20203;-74
2022/03/24 09:51:55;;;;;;;15.13;8.03;;;;;;;23.48;18.41;100027.75;5092316;28;20196;-73
2022/03/24 09:54:22;;;;;;;10.40;7.50;;;;;;;23.11;18.92;100021.63;5092825;28;20573;-77
2022/03/24 09:56:49;;;;;;;12.47;7.77;;;;;;;23.80;19.12;100020.22;5092679;28;20198;-74
2022/03/24 09:59:17;;;;;;;13.57;8.83;;;;;;;24.37;19.87;100014.56;5096023;28;20227;-76
2022/03/24 10:01:44;;;;;;;18.97;9.57;;;;;;;24.10;18.61;100014.06;5095421;28;20681;-76
2022/03/24 10:04:14;;;;;;;12.10;8.13;;;;;;;24.52;19.68;100009.13;5088051;28;20189;-73
2022/03/24 10:06:57;;;;;;;24.50;8.53;;;;;;;24.93;20.06;99999.81;5089298;28;20253;-74
2022/03/24 10:09:36;;;;;;;13.57;7.43;;;;;;;24.66;17.03;99959.41;5095984;28;20207;-68
2022/03/24 10:12:04;;;;;;;9.13;7.33;;;;;;;24.89;16.51;99991.41;5096013;28;20195;-69
2022/03/24 10:14:31;;;;;;;8.73;7.87;;;;;;;24.86;18.27;99985.72;5112589;28;20210;-66
2022/03/24 10:17:07;;;;;;;9.63;7.53;;;;;;;24.75;18.54;99986.84;5116103;28;20242;-67
2022/03/24 10:19:36;;;;;;;139.53;14.20;;;;;;;24.71;18.49;99977.63;5115743;28;20215;-69
2022/03/24 10:22:08;;;;;;;18.77;7.93;;;;;;;24.74;18.32;99988.75;5115646;28;20212;-70
2022/03/24 10:24:41;;;;;;;19.87;7.20;;;;;;;24.85;19.00;99979.47;5115429;27;20676;-71
2022/03/24 10:27:07;;;;;;;18.37;8.20;;;;;;;24.90;16.38;99987.59;5115272;28;20194;-66
2022/03/24 10:29:35;;;;;;;14.03;8.13;;;;;;;24.62;16.67;99981.97;5115133;27;20746;-70
2022/03/24 10:32:04;;;;;;;17.57;6.87;;;;;;;24.55;18.09;99979.50;5103961;28;20263;-74
2022/03/24 10:34:33;;;;;;;11.53;7.60;;;;;;;24.56;16.65;99978.44;5094925;28;20209;-67
2022/03/24 10:37:05;;;;;;;9.40;7.57;;;;;;;24.14;17.06;99977.94;5094977;28;20198;-68
2022/03/24 10:39:32;;;;;;;8.23;7.13;;;;;;;24.00;16.85;99970.59;5095008;28;20619;-68
2022/03/24 10:42:17;;;;;;;12.47;6.60;;;;;;;23.19;17.72;99952.53;5077180;28;20210;-69
2022/03/24 10:45:06;;;;;;;18.20;7.97;;;;;;;23.10;17.91;99971.22;5075491;28;20188;-68
2022/03/24 10:47:40;;;;;;;12.20;7.80;;;;;;;23.17;17.79;99962.81;5073704;28;20253;-71
2022/03/24 10:50:22;;;;;;;11.47;7.50;;;;;;;22.81;17.40;99951.03;5073233;28;20649;-71
2022/03/24 10:52:51;;;;;;;11.20;7.80;;;;;;;22.99;17.63;99958.69;5073168;28;20237;-71
2022/03/24 10:55:33;;;;;;;16.10;7.17;;;;;;;23.05;17.66;99951.41;5074035;28;20281;-70
2022/03/24 10:58:00;;;;;;;13.83;7.43;;;;;;;22.68;18.03;99943.41;5074860;28;20560;-71
2022/03/24 11:00:27;;;;;;;8.53;6.60;;;;;;;22.82;17.48;99949.94;5074485;28;20211;-71
2022/03/24 11:02:55;;;;;;;10.07;7.73;;;;;;;23.01;17.43;99929.44;5072837;28;20676;-69
2022/03/24 11:05:21;;;;;;;9.87;7.00;;;;;;;23.18;17.74;99934.63;5076692;28;20284;-69
2022/03/24 11:07:54;;;;;;;8.80;6.83;;;;;;;22.87;17.71;99917.44;5095148;28;20188;-71
2022/03/24 11:10:23;;;;;;;24.30;8.30;;;;;;;22.77;17.36;99922.84;5094156;28;20195;-69
2022/03/24 11:12:53;;;;;;;9.20;7.07;;;;;;;22.67;17.59;99917.38;5094971;28;20561;-68
2022/03/24 11:15:20;;;;;;;26.73;7.80;;;;;;;22.31;17.50;99907.41;5094580;28;20226;-69
2022/03/24 11:17:48;;;;;;;10.13;7.37;;;;;;;22.47;17.37;99917.28;5093967;28;20204;-69
2022/03/24 11:20:24;;;;;;;9.33;7.27;;;;;;;22.40;17.56;99894.19;5097704;28;20230;-68
2022/03/24 11:22:55;;;;;;;7.33;6.73;;;;;;;22.22;17.60;99864.88;5113012;28;20198;-67
2022/03/24 11:25:23;;;;;;;11.93;8.17;;;;;;;22.51;17.85;99890.50;5072359;28;20188;-67